Observations for Trim Market St
| Time | AQI | Temp °C | Hum % | Pres Pa | CO μg/m³ | H₂S μg/m³ | NO μg/m³ | NO₂ μg/m³ | O₃ μg/m³ | SO₂ μg/m³ | PM1 μg/m³ | PM2.5 μg/m³ | PM10 μg/m³ |
|---|---|---|---|---|---|---|---|---|---|---|---|---|---|
| Monday 24 August 2026 | |||||||||||||
| 01:52 | 2 | 10.4 | 75 | 50,902 | 0.53 | 0 | 4.2 | 13.17 | 26.92 | 0 | 3.56 | 5.21 | 8.13 |
| 01:51 | 2 | 10.4 | 75 | 50,922 | 0.53 | 0 | 3.82 | 13.39 | 26.44 | 0 | 2.85 | 4.73 | 7.53 |
| 01:50 | 2 | 10.4 | 75 | 50,955 | 0.52 | 0 | 3.65 | 12.94 | 27.33 | 0 | 2.85 | 3.78 | 6.34 |
| 01:49 | 2 | 10.4 | 75 | 51,007 | 0.53 | 0 | 3.86 | 12.92 | 27.58 | 0 | 2.14 | 4.26 | 8.73 |
| 01:48 | 2 | 10.4 | 75 | 51,056 | 0.53 | 0 | 3.83 | 13.64 | 26.08 | 0 | 3.56 | 4.74 | 7.53 |
| 01:45 | 2 | 10.5 | 75 | 51,278 | 0.53 | 0 | 3.76 | 13.64 | 26.34 | 0 | 2.85 | 4.27 | 6.93 |
| 01:44 | 2 | 10.5 | 75 | 51,375 | 0.54 | 0 | 3.62 | 12.37 | 27.24 | 0 | 2.85 | 4.75 | 7.53 |
| 01:42 | 2 | 10.5 | 75 | 51,474 | 0.54 | 0 | 4.69 | 14.82 | 24.74 | 0 | 2.14 | 3.8 | 6.33 |
| 01:40 | 2 | 10.5 | 74 | 51,592 | 0.53 | 0 | 5.37 | 15.23 | 24.26 | 0 | 2.14 | 3.8 | 6.33 |
| 01:36 | 2 | 10.6 | 74 | 51,824 | 0.53 | 0 | 4.38 | 14.3 | 24.3 | 0 | 2.85 | 4.29 | 6.93 |
| 01:35 | 2 | 10.6 | 74 | 51,903 | 0.56 | 0 | 4.45 | 13.44 | 25.8 | 0 | 2.85 | 4.77 | 8.73 |
| 01:26 | 2 | 10.7 | 74 | 52,830 | 0.51 | 0 | 3.93 | 17.37 | 21.69 | 0 | 2.85 | 3.84 | 6.93 |
| 01:25 | 2 | 10.7 | 74 | 52,931 | 0.51 | 0 | 3.93 | 16.83 | 22.58 | 0 | 2.14 | 2.39 | 4.51 |
| 01:24 | 2 | 10.7 | 74 | 53,059 | 0.51 | 0 | 4.04 | 22.09 | 18.07 | 0 | 2.14 | 4.32 | 8.74 |
| 01:23 | 2 | 10.8 | 74 | 53,231 | 0.5 | 0 | 4.3 | 19.14 | 20.8 | 0 | 2.14 | 3.85 | 7.53 |
| 01:22 | 2 | 10.8 | 74 | 53,407 | 0.5 | 0 | 3.89 | 15.67 | 25.38 | 0 | 1.43 | 2.88 | 5.11 |
| 01:21 | 2 | 10.8 | 74 | 53,561 | 0.5 | 0 | 3.46 | 16.71 | 23.81 | 0 | 2.14 | 3.85 | 6.32 |
| 01:20 | 2 | 10.8 | 73 | 53,705 | 0.5 | 0 | 3.53 | 14.26 | 27.06 | 0 | 2.85 | 4.34 | 6.92 |
| 01:19 | 2 | 10.8 | 73 | 53,842 | 0.49 | 0 | 3.53 | 18.11 | 22.98 | 0 | 2.14 | 4.34 | 6.92 |
| 01:18 | 2 | 10.8 | 73 | 53,971 | 0.51 | 0 | 3.09 | 15.59 | 25.39 | 0 | 2.14 | 3.86 | 6.32 |